createdAt,value
2019-01-18T00:00:53.586Z,12.70
2019-01-18T00:03:20.298Z,12.73
2019-01-18T00:05:47.082Z,12.55
2019-01-18T00:08:14.244Z,13.72
2019-01-18T00:10:40.935Z,13.03
2019-01-18T00:13:07.638Z,13.93
2019-01-18T00:15:34.342Z,17.12
2019-01-18T00:18:01.263Z,19.37
2019-01-18T00:20:28.077Z,13.22
2019-01-18T00:22:54.783Z,15.43
2019-01-18T00:25:21.610Z,15.08
2019-01-18T00:27:48.306Z,17.98
2019-01-18T00:30:21.073Z,17.10
2019-01-18T00:32:47.851Z,16.85
2019-01-18T00:35:14.750Z,17.52
2019-01-18T00:37:41.446Z,13.38
2019-01-18T00:40:09.286Z,14.53
2019-01-18T00:42:37.425Z,17.55
2019-01-18T00:45:06.335Z,17.07
2019-01-18T00:47:33.159Z,13.70
2019-01-18T00:49:59.859Z,16.17
2019-01-18T00:52:26.659Z,13.72
2019-01-18T00:54:53.382Z,15.48
2019-01-18T00:57:20.082Z,16.27
2019-01-18T00:59:46.879Z,14.65
2019-01-18T01:02:13.782Z,13.18
2019-01-18T01:04:40.585Z,10.32
2019-01-18T01:07:07.287Z,12.60
2019-01-18T01:09:33.983Z,14.60
2019-01-18T01:12:00.687Z,12.58
2019-01-18T01:14:27.479Z,14.95
2019-01-18T01:16:54.187Z,15.15
2019-01-18T01:19:20.996Z,13.83
2019-01-18T01:21:47.695Z,12.68
2019-01-18T01:24:14.529Z,11.08
2019-01-18T01:26:41.326Z,10.05
2019-01-18T01:29:08.135Z,13.13
2019-01-18T01:31:34.838Z,10.08
2019-01-18T01:34:01.643Z,13.00
2019-01-18T01:36:28.339Z,16.25
2019-01-18T01:38:55.146Z,14.60
2019-01-18T01:41:21.850Z,11.80
2019-01-18T01:43:48.559Z,11.90
2019-01-18T01:46:15.351Z,11.48
2019-01-18T01:48:42.354Z,9.48
2019-01-18T01:51:09.061Z,8.65
2019-01-18T01:53:35.771Z,9.73
2019-01-18T01:56:03.203Z,7.20
2019-01-18T01:58:29.979Z,9.28
2019-01-18T02:00:56.774Z,9.85
2019-01-18T02:03:23.496Z,6.10
2019-01-18T02:05:51.098Z,11.88
2019-01-18T02:08:17.799Z,10.50
2019-01-18T02:10:44.612Z,10.88
2019-01-18T02:13:11.415Z,10.85
2019-01-18T02:15:38.107Z,7.00
2019-01-18T02:18:04.920Z,9.68
2019-01-18T02:20:31.618Z,11.15
2019-01-18T02:22:58.438Z,11.08
2019-01-18T02:25:25.139Z,10.28
2019-01-18T02:27:51.839Z,10.88
2019-01-18T02:30:23.260Z,13.98
2019-01-18T02:32:50.090Z,10.93
2019-01-18T02:35:16.895Z,11.00
2019-01-18T02:37:43.694Z,12.85
2019-01-18T02:40:11.304Z,12.05
2019-01-18T02:42:38.120Z,10.72
2019-01-18T02:45:06.913Z,11.40
2019-01-18T02:47:33.616Z,15.45
2019-01-18T02:50:00.309Z,12.80
2019-01-18T02:52:27.007Z,9.98
2019-01-18T02:54:53.728Z,8.30
2019-01-18T02:57:20.431Z,12.35
2019-01-18T02:59:47.141Z,14.25
2019-01-18T03:02:14.063Z,14.00
2019-01-18T03:04:40.767Z,10.68
2019-01-18T03:07:07.467Z,12.43
2019-01-18T03:09:34.181Z,12.07
2019-01-18T03:12:00.989Z,15.95
2019-01-18T03:14:27.698Z,13.32
2019-01-18T03:16:54.404Z,10.85
2019-01-18T03:19:21.103Z,11.25
2019-01-18T03:21:47.811Z,13.68
2019-01-18T03:24:14.511Z,14.93
2019-01-18T03:26:41.318Z,15.32
2019-01-18T03:29:08.031Z,16.73
2019-01-18T03:31:34.742Z,20.37
2019-01-18T03:34:01.451Z,14.85
2019-01-18T03:36:28.143Z,13.15
2019-01-18T03:38:54.836Z,16.30
2019-01-18T03:41:21.535Z,17.20
2019-01-18T03:43:48.349Z,14.47
2019-01-18T03:46:15.149Z,11.60
2019-01-18T03:48:41.861Z,15.18
2019-01-18T03:51:08.566Z,16.87
2019-01-18T03:53:35.280Z,15.60
2019-01-18T03:56:02.099Z,13.20
2019-01-18T03:58:28.799Z,14.23
2019-01-18T04:00:55.619Z,15.55
2019-01-18T04:03:22.320Z,15.35
2019-01-18T04:05:49.135Z,17.75
2019-01-18T04:08:15.847Z,15.23
2019-01-18T04:10:42.550Z,16.02
2019-01-18T04:13:09.350Z,15.68
2019-01-18T04:15:36.158Z,13.50
2019-01-18T04:18:03.075Z,14.95
2019-01-18T04:20:29.770Z,12.03
2019-01-18T04:22:56.471Z,14.25
2019-01-18T04:25:27.692Z,20.82
2019-01-18T04:27:54.390Z,12.07
2019-01-18T04:30:22.148Z,20.12
2019-01-18T04:32:49.043Z,16.37
2019-01-18T04:35:15.931Z,11.60
2019-01-18T04:37:42.855Z,17.00
2019-01-18T04:40:12.884Z,11.73
2019-01-18T04:42:39.587Z,13.60
2019-01-18T04:45:06.562Z,15.00
2019-01-18T04:47:53.006Z,12.70
2019-01-18T04:50:21.455Z,14.45
2019-01-18T04:52:48.143Z,14.05
2019-01-18T04:55:14.935Z,15.00
2019-01-18T04:57:41.867Z,17.27
2019-01-18T05:00:14.774Z,14.07
2019-01-18T05:02:41.878Z,16.40
2019-01-18T05:05:08.803Z,15.00
2019-01-18T05:07:35.667Z,14.75
2019-01-18T05:10:03.572Z,13.38
2019-01-18T05:12:30.265Z,16.87
2019-01-18T05:14:56.952Z,17.05
2019-01-18T05:17:23.655Z,11.35
2019-01-18T05:19:50.351Z,16.45
2019-01-18T05:22:17.055Z,14.25
2019-01-18T05:24:49.359Z,16.10
2019-01-18T05:27:12.363Z,19.25
2019-01-18T05:29:39.170Z,14.07
2019-01-18T05:32:05.960Z,16.57
2019-01-18T05:34:32.745Z,15.63
2019-01-18T05:37:00.339Z,13.53
2019-01-18T05:39:27.035Z,15.08
2019-01-18T05:41:53.827Z,17.92
2019-01-18T05:44:20.627Z,14.20
2019-01-18T05:46:47.423Z,13.50
2019-01-18T05:49:14.165Z,12.58
2019-01-18T05:51:40.918Z,17.75
2019-01-18T05:54:07.623Z,14.13
2019-01-18T05:56:34.307Z,19.23
2019-01-18T05:59:01.016Z,15.93
2019-01-18T06:01:27.965Z,17.30
2019-01-18T06:03:55.215Z,14.95
2019-01-18T06:06:21.915Z,16.60
2019-01-18T06:08:48.844Z,16.90
2019-01-18T06:11:15.647Z,14.60
2019-01-18T06:13:42.324Z,14.68
2019-01-18T06:16:09.025Z,14.78
2019-01-18T06:18:35.819Z,17.05
2019-01-18T06:21:02.736Z,14.30
2019-01-18T06:23:29.431Z,17.23
2019-01-18T06:25:56.119Z,14.10
2019-01-18T06:28:22.818Z,15.15
2019-01-18T06:30:49.511Z,14.73
2019-01-18T06:33:16.311Z,19.77
2019-01-18T06:35:43.014Z,16.67
2019-01-18T06:38:09.806Z,15.48
2019-01-18T06:40:36.698Z,16.95
2019-01-18T06:43:03.602Z,16.45
2019-01-18T06:45:31.528Z,12.70
2019-01-18T06:47:58.215Z,17.05
2019-01-18T06:50:25.139Z,19.65
2019-01-18T06:52:51.831Z,15.00
2019-01-18T06:55:18.643Z,17.45
2019-01-18T06:57:45.675Z,17.00
2019-01-18T07:00:18.292Z,19.77
2019-01-18T07:02:44.999Z,14.23
2019-01-18T07:05:11.919Z,14.23
2019-01-18T07:07:38.834Z,17.23
2019-01-18T07:10:07.704Z,19.82
2019-01-18T07:12:34.413Z,16.77
2019-01-18T07:15:01.312Z,12.85
2019-01-18T07:17:28.803Z,22.22
2019-01-18T07:19:55.520Z,17.42
2019-01-18T07:22:22.207Z,18.32
2019-01-18T07:24:48.906Z,17.35
2019-01-18T07:27:15.607Z,18.40
2019-01-18T07:29:42.319Z,19.95
2019-01-18T07:32:09.027Z,20.62
2019-01-18T07:34:35.731Z,19.30
2019-01-18T07:37:02.535Z,23.98
2019-01-18T07:39:29.247Z,22.10
2019-01-18T07:41:56.059Z,21.97
2019-01-18T07:44:22.779Z,18.90
2019-01-18T07:46:49.479Z,17.70
2019-01-18T07:49:16.179Z,17.95
2019-01-18T07:51:42.886Z,27.27
2019-01-18T07:54:09.605Z,18.10
2019-01-18T07:56:36.406Z,20.10
2019-01-18T07:59:03.216Z,22.60
2019-01-18T08:01:29.924Z,21.90
2019-01-18T08:03:56.632Z,18.57
2019-01-18T08:06:23.332Z,24.30
2019-01-18T08:08:50.040Z,22.07
2019-01-18T08:11:16.745Z,19.45
2019-01-18T08:13:43.443Z,22.15
2019-01-18T08:16:10.158Z,25.77
2019-01-18T08:18:36.873Z,24.70
2019-01-18T08:21:03.763Z,25.35
2019-01-18T08:23:30.569Z,27.48
2019-01-18T08:25:57.272Z,31.17
2019-01-18T08:28:24.183Z,28.40
2019-01-18T08:30:50.899Z,30.70
2019-01-18T08:33:17.931Z,30.95
2019-01-18T08:35:44.731Z,32.13
2019-01-18T08:38:11.447Z,34.53
2019-01-18T08:40:39.844Z,32.23
2019-01-18T08:43:09.548Z,29.18
2019-01-18T08:45:45.203Z,31.23
2019-01-18T08:48:11.908Z,33.10
2019-01-18T08:50:39.255Z,29.98
2019-01-18T08:53:06.079Z,32.85
2019-01-18T08:55:32.871Z,31.90
2019-01-18T08:57:59.583Z,33.05
2019-01-18T09:00:26.426Z,29.25
2019-01-18T09:02:53.341Z,33.65
2019-01-18T09:05:22.091Z,32.35
2019-01-18T09:07:48.795Z,30.05
2019-01-18T09:10:16.500Z,34.90
2019-01-18T09:12:43.411Z,30.32
2019-01-18T09:15:10.804Z,28.35
2019-01-18T09:17:37.936Z,26.00
2019-01-18T09:20:08.173Z,32.33
2019-01-18T09:22:34.939Z,32.40
2019-01-18T09:25:01.759Z,32.40
2019-01-18T09:27:28.583Z,29.12
2019-01-18T09:29:55.287Z,34.10
2019-01-18T09:32:22.107Z,34.15
2019-01-18T09:34:48.807Z,29.52
2019-01-18T09:37:15.619Z,38.20
2019-01-18T09:39:42.437Z,32.93
2019-01-18T09:42:09.155Z,36.10
2019-01-18T09:44:35.959Z,36.50
2019-01-18T09:47:03.291Z,38.40
2019-01-18T09:49:29.993Z,38.05
2019-01-18T09:51:56.793Z,41.53
2019-01-18T09:54:23.482Z,42.67
2019-01-18T09:56:50.283Z,36.13
2019-01-18T09:59:16.987Z,38.67
2019-01-18T10:01:49.219Z,38.33
2019-01-18T10:04:12.398Z,39.65
2019-01-18T10:06:39.107Z,43.90
2019-01-18T10:09:07.663Z,38.83
2019-01-18T10:11:34.842Z,40.55
2019-01-18T10:14:01.543Z,37.95
2019-01-18T10:16:28.247Z,49.35
2019-01-18T10:18:54.956Z,45.45
2019-01-18T10:21:21.775Z,104.50
2019-01-18T10:23:48.579Z,117.28
2019-01-18T10:26:15.279Z,255.50
2019-01-18T10:28:41.988Z,203.42
2019-01-18T10:31:08.696Z,177.82
2019-01-18T10:33:35.772Z,144.95
2019-01-18T10:36:03.423Z,161.25
2019-01-18T10:38:30.143Z,121.33
2019-01-18T10:40:56.843Z,102.58
2019-01-18T10:43:23.652Z,114.62
2019-01-18T10:45:50.347Z,103.87
2019-01-18T10:48:17.681Z,94.17
2019-01-18T10:50:44.369Z,91.50
2019-01-18T10:53:11.273Z,103.30
2019-01-18T10:55:37.987Z,73.85
2019-01-18T10:58:04.878Z,83.07
2019-01-18T11:00:33.695Z,92.12
2019-01-18T11:03:00.402Z,106.50
2019-01-18T11:05:27.402Z,86.30
2019-01-18T11:07:54.108Z,100.78
2019-01-18T11:10:20.908Z,98.70
2019-01-18T11:12:47.827Z,88.30
2019-01-18T11:15:16.952Z,63.75
2019-01-18T11:17:43.659Z,71.22
2019-01-18T11:20:13.717Z,55.50
2019-01-18T11:22:40.532Z,71.85
2019-01-18T11:25:07.547Z,71.25
2019-01-18T11:27:34.247Z,67.03
2019-01-18T11:30:01.055Z,58.95
2019-01-18T11:32:27.755Z,76.07
2019-01-18T11:34:54.494Z,72.53
2019-01-18T11:37:21.479Z,91.95
2019-01-18T11:39:48.719Z,58.58
2019-01-18T11:42:15.427Z,67.72
2019-01-18T11:44:42.119Z,66.97
2019-01-18T11:47:08.923Z,80.53
2019-01-18T11:49:35.635Z,72.75
2019-01-18T11:52:02.439Z,49.27
2019-01-18T11:54:29.135Z,39.70
2019-01-18T11:56:55.855Z,75.65
2019-01-18T11:59:22.559Z,62.48
2019-01-18T12:01:49.258Z,93.15
2019-01-18T12:04:16.183Z,94.60
2019-01-18T12:06:43.119Z,159.22
2019-01-18T12:09:10.035Z,83.47
2019-01-18T12:11:36.748Z,100.25
2019-01-18T12:14:03.564Z,84.28
2019-01-18T12:16:30.281Z,76.67
2019-01-18T12:18:56.995Z,91.78
2019-01-18T12:21:23.792Z,80.53
2019-01-18T12:23:50.495Z,77.87
2019-01-18T12:26:17.203Z,76.75
2019-01-18T12:28:43.911Z,90.67
2019-01-18T12:31:10.615Z,53.20
2019-01-18T12:33:37.319Z,64.80
2019-01-18T12:36:04.123Z,68.10
2019-01-18T12:38:30.919Z,53.28
2019-01-18T12:40:57.636Z,69.10
2019-01-18T12:43:24.352Z,92.65
2019-01-18T12:45:51.055Z,57.85
2019-01-18T12:48:17.763Z,60.85
2019-01-18T12:50:44.574Z,115.97
2019-01-18T12:53:11.267Z,111.55
2019-01-18T12:55:38.079Z,78.25
2019-01-18T12:58:05.611Z,47.43
2019-01-18T13:00:32.716Z,59.25
2019-01-18T13:03:01.087Z,51.92
2019-01-18T13:05:40.227Z,72.45
2019-01-18T13:08:07.274Z,76.72
2019-01-18T13:10:33.979Z,60.90
2019-01-18T13:13:00.784Z,50.12
2019-01-18T13:15:54.223Z,59.58
2019-01-18T13:18:20.928Z,59.40
2019-01-18T13:20:47.743Z,60.40
2019-01-18T13:23:14.456Z,46.50
2019-01-18T13:25:41.159Z,51.25
2019-01-18T13:28:08.063Z,60.80
2019-01-18T13:30:34.783Z,58.52
2019-01-18T13:33:01.702Z,71.12
2019-01-18T13:35:28.420Z,51.28
2019-01-18T13:37:55.239Z,44.15
2019-01-18T13:40:22.511Z,62.10
2019-01-18T13:42:49.327Z,45.35
2019-01-18T13:45:16.235Z,60.48
2019-01-18T13:47:43.476Z,42.10
2019-01-18T13:50:12.711Z,53.05
2019-01-18T13:52:39.543Z,47.75
2019-01-18T13:55:10.812Z,49.98
2019-01-18T13:57:37.515Z,51.80
2019-01-18T14:00:04.866Z,75.32
2019-01-18T14:02:31.575Z,57.62
2019-01-18T14:04:58.279Z,64.90
2019-01-18T14:07:24.991Z,56.85
2019-01-18T14:09:51.700Z,64.17
2019-01-18T14:12:18.410Z,66.77
2019-01-18T14:14:45.534Z,72.85
2019-01-18T14:17:12.243Z,59.75
2019-01-18T14:19:38.942Z,67.87
2019-01-18T14:22:05.749Z,44.50
2019-01-18T14:24:32.443Z,43.13
2019-01-18T14:26:59.148Z,38.13
2019-01-18T14:29:25.843Z,37.63
2019-01-18T14:31:52.559Z,35.03
2019-01-18T14:34:19.279Z,34.10
2019-01-18T14:36:46.015Z,38.80
2019-01-18T14:39:12.727Z,36.55
2019-01-18T14:41:39.531Z,38.40
2019-01-18T14:44:06.779Z,33.08
2019-01-18T14:46:33.471Z,37.33
2019-01-18T14:49:00.211Z,39.75
2019-01-18T14:51:27.032Z,44.27
2019-01-18T14:53:53.734Z,37.23
2019-01-18T14:56:20.439Z,45.25
2019-01-18T14:58:47.244Z,43.95
2019-01-18T15:01:13.943Z,35.45
2019-01-18T15:03:40.635Z,38.00
2019-01-18T15:06:07.563Z,37.53
2019-01-18T15:08:34.278Z,39.73
2019-01-18T15:11:01.431Z,40.03
2019-01-18T15:13:28.135Z,39.25
2019-01-18T15:15:55.051Z,55.85
2019-01-18T15:18:21.886Z,39.55
2019-01-18T15:20:48.606Z,34.05
2019-01-18T15:23:15.411Z,33.28
2019-01-18T15:25:42.220Z,33.58
2019-01-18T15:28:09.127Z,34.05
2019-01-18T15:30:36.035Z,41.42
2019-01-18T15:33:09.084Z,45.23
2019-01-18T15:35:34.771Z,35.95
2019-01-18T15:38:01.608Z,30.68
2019-01-18T15:40:30.475Z,29.23
2019-01-18T15:42:59.807Z,34.33
2019-01-18T15:45:26.515Z,37.98
2019-01-18T15:47:53.311Z,34.60
2019-01-18T15:50:22.762Z,42.35
2019-01-18T15:52:49.568Z,38.50
2019-01-18T15:55:16.467Z,37.05
2019-01-18T15:57:43.275Z,33.73
2019-01-18T16:00:22.660Z,47.80
2019-01-18T16:02:49.972Z,41.65
2019-01-18T16:05:17.163Z,49.73
2019-01-18T16:07:43.867Z,36.42
2019-01-18T16:10:10.797Z,39.50
2019-01-18T16:12:37.503Z,37.65
2019-01-18T16:15:06.555Z,48.50
2019-01-18T16:17:33.259Z,38.73
2019-01-18T16:20:00.174Z,48.02
2019-01-18T16:22:26.991Z,39.23
2019-01-18T16:24:53.939Z,39.05
2019-01-18T16:27:20.678Z,50.05
2019-01-18T16:29:47.447Z,44.88
2019-01-18T16:32:14.967Z,34.35
2019-01-18T16:34:41.683Z,44.60
2019-01-18T16:37:08.439Z,39.18
2019-01-18T16:39:35.528Z,36.65
2019-01-18T16:42:02.484Z,42.60
2019-01-18T16:44:29.283Z,41.10
2019-01-18T16:46:55.986Z,49.40
2019-01-18T16:49:22.691Z,41.20
2019-01-18T16:51:49.391Z,44.77
2019-01-18T16:54:16.095Z,46.95
2019-01-18T16:56:42.891Z,41.95
2019-01-18T16:59:09.588Z,54.08
2019-01-18T17:01:36.299Z,52.13
2019-01-18T17:04:03.720Z,79.05
2019-01-18T17:06:30.434Z,88.17
2019-01-18T17:08:57.135Z,82.95
2019-01-18T17:11:23.845Z,51.90
2019-01-18T17:13:50.651Z,45.48
2019-01-18T17:16:17.355Z,61.23
2019-01-18T17:18:44.463Z,71.30
2019-01-18T17:21:11.273Z,57.58
2019-01-18T17:23:37.987Z,87.47
2019-01-18T17:26:06.078Z,62.80
2019-01-18T17:28:32.791Z,65.22
2019-01-18T17:30:59.483Z,66.12
2019-01-18T17:33:26.294Z,60.90
2019-01-18T17:36:16.881Z,77.15
2019-01-18T17:39:10.644Z,105.22
2019-01-18T17:45:01.166Z,107.25
2019-01-18T17:47:47.998Z,99.28
2019-01-18T17:50:46.311Z,90.40
2019-01-18T17:53:52.080Z,141.22
2019-01-18T17:56:58.116Z,88.10
2019-01-18T17:59:47.464Z,83.52
2019-01-18T18:02:32.039Z,89.92
2019-01-18T18:05:44.111Z,159.25
2019-01-18T18:08:37.926Z,136.85
2019-01-18T18:11:43.048Z,108.97
2019-01-18T18:14:22.304Z,95.95
2019-01-18T18:17:17.288Z,132.78
2019-01-18T18:20:25.935Z,78.83
2019-01-18T18:23:55.889Z,89.52
2019-01-18T18:26:48.903Z,77.90
2019-01-18T18:29:51.010Z,104.23
2019-01-18T18:32:44.852Z,140.15
2019-01-18T18:35:38.515Z,64.50
2019-01-18T18:38:47.750Z,69.32
2019-01-18T18:41:55.011Z,76.50
2019-01-18T18:45:00.243Z,72.10
2019-01-18T18:47:42.491Z,66.47
2019-01-18T18:50:46.319Z,70.85
2019-01-18T18:53:49.135Z,63.28
2019-01-18T18:56:32.114Z,65.97
2019-01-18T18:59:34.997Z,68.55
2019-01-18T19:02:24.975Z,62.48
2019-01-18T19:05:09.227Z,70.87
2019-01-18T19:07:48.779Z,73.70
2019-01-18T19:11:03.094Z,82.40
2019-01-18T19:13:45.336Z,89.40
2019-01-18T19:16:46.405Z,59.38
2019-01-18T19:19:25.099Z,52.70
2019-01-18T19:22:22.431Z,52.50
2019-01-18T19:25:27.735Z,57.65
2019-01-18T19:28:38.374Z,69.10
2019-01-18T19:32:05.294Z,63.40
2019-01-18T19:35:10.136Z,72.58
2019-01-18T19:38:15.071Z,63.10
2019-01-18T19:41:32.179Z,58.45
2019-01-18T19:44:29.219Z,60.75
2019-01-18T19:47:19.535Z,58.78
2019-01-18T19:50:19.356Z,55.33
2019-01-18T19:53:19.671Z,56.13
2019-01-18T19:56:39.723Z,55.98
2019-01-18T19:59:38.879Z,59.83
2019-01-18T20:02:53.739Z,59.38
2019-01-18T20:05:34.216Z,61.48
2019-01-18T20:08:08.978Z,63.05
2019-01-18T20:11:18.494Z,68.97
2019-01-18T20:14:11.552Z,55.23
2019-01-18T20:17:10.751Z,56.58
2019-01-18T20:20:13.872Z,75.15
2019-01-18T20:22:59.935Z,61.00
2019-01-18T20:25:41.959Z,54.38
2019-01-18T20:28:41.747Z,61.25
2019-01-18T20:31:47.169Z,62.55
2019-01-18T20:34:37.283Z,60.55
2019-01-18T20:37:29.536Z,63.48
2019-01-18T20:40:07.944Z,61.35
2019-01-18T20:43:15.048Z,72.60
2019-01-18T20:46:23.931Z,62.00
2019-01-18T20:49:08.520Z,62.67
2019-01-18T20:52:12.418Z,58.38
2019-01-18T20:55:17.264Z,88.00
2019-01-18T20:58:09.823Z,65.10
2019-01-18T21:01:36.828Z,63.48
2019-01-18T21:04:33.347Z,71.75
2019-01-18T21:07:10.459Z,68.42
2019-01-18T21:10:17.262Z,59.38
2019-01-18T21:13:18.915Z,69.60
2019-01-18T21:16:07.355Z,65.08
2019-01-18T21:18:49.563Z,80.10
2019-01-18T21:21:26.350Z,80.90
2019-01-18T21:24:24.538Z,69.15
2019-01-18T21:27:10.496Z,94.05
2019-01-18T21:30:21.080Z,73.15
2019-01-18T21:33:30.733Z,74.10
2019-01-18T21:36:24.406Z,84.30
2019-01-18T21:39:19.627Z,73.50
2019-01-18T21:42:31.902Z,72.58
2019-01-18T21:45:38.607Z,74.17
2019-01-18T21:48:31.239Z,69.27
2019-01-18T21:51:39.127Z,74.03
2019-01-18T21:54:35.588Z,77.72
2019-01-18T21:57:52.899Z,77.37
2019-01-18T22:00:56.935Z,73.25
2019-01-18T22:03:48.755Z,70.20
2019-01-18T22:06:57.659Z,76.92
2019-01-18T22:09:34.995Z,64.37
2019-01-18T22:12:39.497Z,71.65
2019-01-18T22:15:46.636Z,72.67
2019-01-18T22:18:24.003Z,64.55
2019-01-18T22:21:20.888Z,58.92
2019-01-18T22:24:15.103Z,62.78
2019-01-18T22:27:08.780Z,67.82
2019-01-18T22:30:17.319Z,66.05
2019-01-18T22:33:32.403Z,66.33
2019-01-18T22:37:02.384Z,58.75
2019-01-18T22:39:58.276Z,55.48
2019-01-18T22:42:51.443Z,57.10
2019-01-18T22:45:40.654Z,56.05
2019-01-18T22:48:31.267Z,55.05
2019-01-18T22:51:43.087Z,58.68
2019-01-18T22:54:43.316Z,53.02
2019-01-18T22:57:29.251Z,59.25
2019-01-18T23:00:59.748Z,57.75
2019-01-18T23:04:17.655Z,62.45
2019-01-18T23:06:57.500Z,64.47
2019-01-18T23:10:09.379Z,56.37
2019-01-18T23:13:01.108Z,60.38
2019-01-18T23:15:47.407Z,57.90
2019-01-18T23:18:25.911Z,69.25
2019-01-18T23:21:34.503Z,60.85
2019-01-18T23:24:16.071Z,51.45
2019-01-18T23:27:17.647Z,49.93
2019-01-18T23:30:04.071Z,87.27
2019-01-18T23:33:23.303Z,54.10
2019-01-18T23:36:19.713Z,53.45
2019-01-18T23:39:40.563Z,60.52
2019-01-18T23:42:27.761Z,62.98
2019-01-18T23:45:35.796Z,68.15
2019-01-18T23:48:41.336Z,57.62
2019-01-18T23:51:20.007Z,68.70
2019-01-18T23:54:15.322Z,57.35
2019-01-18T23:57:02.555Z,67.80
2019-01-18T23:59:52.767Z,84.20
